Austin, Texas
Traffic Map
Current Weather Conditions
Austin, Texas
Clear
Clear
92°
Feels Like: 97°
Wind Chill: 92° Ceiling: Unl
Heat Index: 97° Visibility: 10mi
Dew Point: 69° Wind: 0mph
Humidity: 47% Direction: ° ()
Pressure: 30.09in Gusts: 0mph
Raw Report DataKATT 221651Z AUTO 00000KT 10SM CLR 33/21 A3009 RMK AO2 SLP173 T03330206
Traffic Incident Summary
Active as of:
Severity:
Category:
InformationThere was an issue retrieving the traffic information for this location. Please try a different location or try again shortly.
Advertisements